sensor_id;sensor_type;location;lat;lon;timestamp;temperature;humidity
33139;DHT22;19501;50.948;5.316;2023-11-21T00:01:11;9.20;99.90
33139;DHT22;19501;50.948;5.316;2023-11-21T00:03:37;9.10;99.90
33139;DHT22;19501;50.948;5.316;2023-11-21T00:06:03;9.00;99.90
33139;DHT22;19501;50.948;5.316;2023-11-21T00:08:34;9.10;99.90
33139;DHT22;19501;50.948;5.316;2023-11-21T00:10:59;9.20;99.90
33139;DHT22;19501;50.948;5.316;2023-11-21T00:13:26;9.20;99.90
33139;DHT22;19501;50.948;5.316;2023-11-21T00:15:51;9.20;99.90
33139;DHT22;19501;50.948;5.316;2023-11-21T00:18:17;9.40;99.90
33139;DHT22;19501;50.948;5.316;2023-11-21T00:20:42;9.40;99.90
33139;DHT22;19501;50.948;5.316;2023-11-21T00:23:08;9.50;99.90
33139;DHT22;19501;50.948;5.316;2023-11-21T00:25:38;9.40;99.90
33139;DHT22;19501;50.948;5.316;2023-11-21T00:28:03;9.30;99.90
33139;DHT22;19501;50.948;5.316;2023-11-21T00:30:30;9.30;99.90
33139;DHT22;19501;50.948;5.316;2023-11-21T00:32:56;9.20;99.90
33139;DHT22;19501;50.948;5.316;2023-11-21T00:35:22;9.30;99.90
33139;DHT22;19501;50.948;5.316;2023-11-21T00:37:47;9.30;99.90
33139;DHT22;19501;50.948;5.316;2023-11-21T00:40:15;9.40;99.90
33139;DHT22;19501;50.948;5.316;2023-11-21T00:42:41;9.50;99.90
33139;DHT22;19501;50.948;5.316;2023-11-21T00:45:07;9.50;99.90
33139;DHT22;19501;50.948;5.316;2023-11-21T00:47:36;9.50;99.90
33139;DHT22;19501;50.948;5.316;2023-11-21T00:50:02;9.60;99.90
33139;DHT22;19501;50.948;5.316;2023-11-21T00:52:29;9.70;99.90
33139;DHT22;19501;50.948;5.316;2023-11-21T00:54:55;9.50;99.90
33139;DHT22;19501;50.948;5.316;2023-11-21T00:57:20;9.30;99.90
33139;DHT22;19501;50.948;5.316;2023-11-21T00:59:46;9.30;99.90
33139;DHT22;19501;50.948;5.316;2023-11-21T01:02:11;9.40;99.90
33139;DHT22;19501;50.948;5.316;2023-11-21T01:04:37;9.50;99.90
33139;DHT22;19501;50.948;5.316;2023-11-21T01:07:03;9.60;99.90
33139;DHT22;19501;50.948;5.316;2023-11-21T01:09:30;9.60;99.90
33139;DHT22;19501;50.948;5.316;2023-11-21T01:11:56;9.60;99.90
33139;DHT22;19501;50.948;5.316;2023-11-21T01:14:22;9.60;99.90
33139;DHT22;19501;50.948;5.316;2023-11-21T01:16:48;9.70;99.90
33139;DHT22;19501;50.948;5.316;2023-11-21T01:19:14;9.70;99.90
33139;DHT22;19501;50.948;5.316;2023-11-21T01:21:40;9.70;99.90
33139;DHT22;19501;50.948;5.316;2023-11-21T01:24:05;9.90;99.90
33139;DHT22;19501;50.948;5.316;2023-11-21T01:26:33;9.90;99.90
33139;DHT22;19501;50.948;5.316;2023-11-21T01:28:59;9.90;99.90
33139;DHT22;19501;50.948;5.316;2023-11-21T01:31:24;9.70;99.90
33139;DHT22;19501;50.948;5.316;2023-11-21T01:33:54;9.60;99.90
33139;DHT22;19501;50.948;5.316;2023-11-21T01:36:20;9.70;99.90
33139;DHT22;19501;50.948;5.316;2023-11-21T01:38:46;9.60;99.90
33139;DHT22;19501;50.948;5.316;2023-11-21T01:41:14;9.60;99.90
33139;DHT22;19501;50.948;5.316;2023-11-21T01:43:40;9.60;99.90
33139;DHT22;19501;50.948;5.316;2023-11-21T01:46:06;9.60;99.90
33139;DHT22;19501;50.948;5.316;2023-11-21T01:48:33;9.70;99.90
33139;DHT22;19501;50.948;5.316;2023-11-21T01:51:04;9.80;99.90
33139;DHT22;19501;50.948;5.316;2023-11-21T01:53:30;9.70;99.90
33139;DHT22;19501;50.948;5.316;2023-11-21T01:55:56;9.70;99.90
33139;DHT22;19501;50.948;5.316;2023-11-21T01:58:22;9.80;99.90
33139;DHT22;19501;50.948;5.316;2023-11-21T02:00:48;9.80;99.90
33139;DHT22;19501;50.948;5.316;2023-11-21T02:03:16;9.60;99.90
33139;DHT22;19501;50.948;5.316;2023-11-21T02:05:42;9.60;99.90
33139;DHT22;19501;50.948;5.316;2023-11-21T02:08:08;9.50;99.90
33139;DHT22;19501;50.948;5.316;2023-11-21T02:10:35;9.60;99.90
33139;DHT22;19501;50.948;5.316;2023-11-21T02:13:02;9.60;99.90
33139;DHT22;19501;50.948;5.316;2023-11-21T02:15:29;9.50;99.90
33139;DHT22;19501;50.948;5.316;2023-11-21T02:17:54;9.40;99.90
33139;DHT22;19501;50.948;5.316;2023-11-21T02:20:22;9.40;99.90
33139;DHT22;19501;50.948;5.316;2023-11-21T02:22:54;9.60;99.90
33139;DHT22;19501;50.948;5.316;2023-11-21T02:25:32;9.50;99.90
33139;DHT22;19501;50.948;5.316;2023-11-21T02:28:02;9.60;99.90
33139;DHT22;19501;50.948;5.316;2023-11-21T02:30:31;9.50;99.90
33139;DHT22;19501;50.948;5.316;2023-11-21T02:33:03;9.60;99.90
33139;DHT22;19501;50.948;5.316;2023-11-21T02:35:28;9.40;99.90
33139;DHT22;19501;50.948;5.316;2023-11-21T02:37:56;9.50;99.90
33139;DHT22;19501;50.948;5.316;2023-11-21T02:40:22;9.40;99.90
33139;DHT22;19501;50.948;5.316;2023-11-21T02:42:52;9.40;99.90
33139;DHT22;19501;50.948;5.316;2023-11-21T02:45:19;9.30;99.90
33139;DHT22;19501;50.948;5.316;2023-11-21T02:47:46;9.50;99.90
33139;DHT22;19501;50.948;5.316;2023-11-21T02:50:12;9.50;99.90
33139;DHT22;19501;50.948;5.316;2023-11-21T02:52:38;9.60;99.90
33139;DHT22;19501;50.948;5.316;2023-11-21T02:55:06;9.70;99.90
33139;DHT22;19501;50.948;5.316;2023-11-21T02:57:33;9.70;99.90
33139;DHT22;19501;50.948;5.316;2023-11-21T02:59:59;9.70;99.90
33139;DHT22;19501;50.948;5.316;2023-11-21T03:02:28;9.80;99.90
33139;DHT22;19501;50.948;5.316;2023-11-21T03:04:53;9.70;99.90
33139;DHT22;19501;50.948;5.316;2023-11-21T03:07:19;9.90;99.90
33139;DHT22;19501;50.948;5.316;2023-11-21T03:09:45;9.80;99.90
33139;DHT22;19501;50.948;5.316;2023-11-21T03:12:11;9.80;99.90
33139;DHT22;19501;50.948;5.316;2023-11-21T03:14:40;9.70;99.90
33139;DHT22;19501;50.948;5.316;2023-11-21T03:17:06;9.80;99.90
33139;DHT22;19501;50.948;5.316;2023-11-21T03:19:32;9.80;99.90
33139;DHT22;19501;50.948;5.316;2023-11-21T03:21:57;9.70;99.90
33139;DHT22;19501;50.948;5.316;2023-11-21T03:24:25;9.70;99.90
33139;DHT22;19501;50.948;5.316;2023-11-21T03:26:51;9.70;99.90
33139;DHT22;19501;50.948;5.316;2023-11-21T03:29:18;9.50;99.90
33139;DHT22;19501;50.948;5.316;2023-11-21T03:31:44;9.40;99.90
33139;DHT22;19501;50.948;5.316;2023-11-21T03:34:16;9.20;99.90
33139;DHT22;19501;50.948;5.316;2023-11-21T03:36:41;9.20;99.90
33139;DHT22;19501;50.948;5.316;2023-11-21T03:39:09;9.30;99.90
33139;DHT22;19501;50.948;5.316;2023-11-21T03:41:35;9.30;99.90
33139;DHT22;19501;50.948;5.316;2023-11-21T03:44:01;9.30;99.90
33139;DHT22;19501;50.948;5.316;2023-11-21T03:46:26;9.50;99.90
33139;DHT22;19501;50.948;5.316;2023-11-21T03:48:52;9.50;99.90
33139;DHT22;19501;50.948;5.316;2023-11-21T03:51:17;9.30;99.90
33139;DHT22;19501;50.948;5.316;2023-11-21T03:53:43;9.30;99.90
33139;DHT22;19501;50.948;5.316;2023-11-21T03:56:09;9.30;99.90
33139;DHT22;19501;50.948;5.316;2023-11-21T03:58:35;9.40;99.90
33139;DHT22;19501;50.948;5.316;2023-11-21T04:01:00;9.50;99.90
33139;DHT22;19501;50.948;5.316;2023-11-21T04:03:27;9.30;99.90
33139;DHT22;19501;50.948;5.316;2023-11-21T04:05:52;9.30;99.90
33139;DHT22;19501;50.948;5.316;2023-11-21T04:08:18;9.30;99.90
33139;DHT22;19501;50.948;5.316;2023-11-21T04:10:43;9.10;99.90
33139;DHT22;19501;50.948;5.316;2023-11-21T04:13:12;9.10;99.90
33139;DHT22;19501;50.948;5.316;2023-11-21T04:15:37;9.20;99.90
33139;DHT22;19501;50.948;5.316;2023-11-21T04:18:03;9.40;99.90
33139;DHT22;19501;50.948;5.316;2023-11-21T04:20:29;9.20;99.90
33139;DHT22;19501;50.948;5.316;2023-11-21T04:22:54;9.20;99.90
33139;DHT22;19501;50.948;5.316;2023-11-21T04:25:20;9.20;99.90
33139;DHT22;19501;50.948;5.316;2023-11-21T04:27:46;9.10;99.90
33139;DHT22;19501;50.948;5.316;2023-11-21T04:30:12;9.10;99.90
33139;DHT22;19501;50.948;5.316;2023-11-21T04:32:38;9.20;99.90
33139;DHT22;19501;50.948;5.316;2023-11-21T04:35:10;9.10;99.90
33139;DHT22;19501;50.948;5.316;2023-11-21T04:37:35;9.10;99.90
33139;DHT22;19501;50.948;5.316;2023-11-21T04:40:02;9.20;99.90
33139;DHT22;19501;50.948;5.316;2023-11-21T04:42:33;9.10;99.90
33139;DHT22;19501;50.948;5.316;2023-11-21T04:44:59;9.10;99.90
33139;DHT22;19501;50.948;5.316;2023-11-21T04:47:24;9.10;99.90
33139;DHT22;19501;50.948;5.316;2023-11-21T04:49:52;9.20;99.90
33139;DHT22;19501;50.948;5.316;2023-11-21T04:52:18;9.20;99.90
33139;DHT22;19501;50.948;5.316;2023-11-21T04:54:45;9.10;99.90
33139;DHT22;19501;50.948;5.316;2023-11-21T04:57:11;9.00;99.90
33139;DHT22;19501;50.948;5.316;2023-11-21T04:59:37;9.00;99.90
33139;DHT22;19501;50.948;5.316;2023-11-21T05:02:03;9.10;99.90
33139;DHT22;19501;50.948;5.316;2023-11-21T05:04:30;9.10;99.90
33139;DHT22;19501;50.948;5.316;2023-11-21T05:06:57;9.00;99.90
33139;DHT22;19501;50.948;5.316;2023-11-21T05:09:22;9.00;99.90
33139;DHT22;19501;50.948;5.316;2023-11-21T05:11:48;9.10;99.90
33139;DHT22;19501;50.948;5.316;2023-11-21T05:14:14;9.10;99.90
33139;DHT22;19501;50.948;5.316;2023-11-21T05:16:39;9.20;99.90
33139;DHT22;19501;50.948;5.316;2023-11-21T05:19:05;9.20;99.90
33139;DHT22;19501;50.948;5.316;2023-11-21T05:21:32;9.20;99.90
33139;DHT22;19501;50.948;5.316;2023-11-21T05:23:58;9.20;99.90
33139;DHT22;19501;50.948;5.316;2023-11-21T05:26:26;9.00;99.90
33139;DHT22;19501;50.948;5.316;2023-11-21T05:28:52;9.00;99.90
33139;DHT22;19501;50.948;5.316;2023-11-21T05:31:17;9.00;99.90
33139;DHT22;19501;50.948;5.316;2023-11-21T05:33:43;9.10;99.90
33139;DHT22;19501;50.948;5.316;2023-11-21T05:36:09;9.00;99.90
33139;DHT22;19501;50.948;5.316;2023-11-21T05:38:36;9.00;99.90
33139;DHT22;19501;50.948;5.316;2023-11-21T05:41:02;8.90;99.90
33139;DHT22;19501;50.948;5.316;2023-11-21T05:43:29;8.90;99.90
33139;DHT22;19501;50.948;5.316;2023-11-21T05:45:56;9.10;99.90
33139;DHT22;19501;50.948;5.316;2023-11-21T05:48:21;9.10;99.90
33139;DHT22;19501;50.948;5.316;2023-11-21T05:50:47;9.00;99.90
33139;DHT22;19501;50.948;5.316;2023-11-21T05:53:15;8.90;99.90
33139;DHT22;19501;50.948;5.316;2023-11-21T05:55:42;9.00;99.90
33139;DHT22;19501;50.948;5.316;2023-11-21T05:58:08;8.90;99.90
33139;DHT22;19501;50.948;5.316;2023-11-21T06:00:34;8.80;99.90
33139;DHT22;19501;50.948;5.316;2023-11-21T06:02:59;8.90;99.90
33139;DHT22;19501;50.948;5.316;2023-11-21T06:05:26;9.00;99.90
33139;DHT22;19501;50.948;5.316;2023-11-21T06:07:53;9.10;99.90
33139;DHT22;19501;50.948;5.316;2023-11-21T06:10:20;9.20;99.90
33139;DHT22;19501;50.948;5.316;2023-11-21T06:12:46;9.10;99.90
33139;DHT22;19501;50.948;5.316;2023-11-21T06:15:12;9.10;99.90
33139;DHT22;19501;50.948;5.316;2023-11-21T06:17:39;9.20;99.90
33139;DHT22;19501;50.948;5.316;2023-11-21T06:20:07;9.40;99.90
33139;DHT22;19501;50.948;5.316;2023-11-21T06:22:40;9.50;99.90
33139;DHT22;19501;50.948;5.316;2023-11-21T06:25:06;9.70;99.90
33139;DHT22;19501;50.948;5.316;2023-11-21T06:27:43;9.30;99.90
33139;DHT22;19501;50.948;5.316;2023-11-21T06:30:10;9.30;99.90
33139;DHT22;19501;50.948;5.316;2023-11-21T06:32:37;9.20;99.90
33139;DHT22;19501;50.948;5.316;2023-11-21T06:35:07;9.20;99.90
33139;DHT22;19501;50.948;5.316;2023-11-21T06:37:33;9.20;99.90
33139;DHT22;19501;50.948;5.316;2023-11-21T06:40:00;9.10;99.90
33139;DHT22;19501;50.948;5.316;2023-11-21T06:42:26;9.20;99.90
33139;DHT22;19501;50.948;5.316;2023-11-21T06:44:52;9.30;99.90
33139;DHT22;19501;50.948;5.316;2023-11-21T06:47:19;9.20;99.90
33139;DHT22;19501;50.948;5.316;2023-11-21T06:49:50;9.20;99.90
33139;DHT22;19501;50.948;5.316;2023-11-21T06:52:16;9.30;99.90
33139;DHT22;19501;50.948;5.316;2023-11-21T06:54:42;9.50;99.90
33139;DHT22;19501;50.948;5.316;2023-11-21T06:57:08;9.50;99.90
33139;DHT22;19501;50.948;5.316;2023-11-21T06:59:33;9.30;99.90
33139;DHT22;19501;50.948;5.316;2023-11-21T07:01:59;9.10;99.90
33139;DHT22;19501;50.948;5.316;2023-11-21T07:04:25;9.10;99.90
33139;DHT22;19501;50.948;5.316;2023-11-21T07:06:53;9.20;99.90
33139;DHT22;19501;50.948;5.316;2023-11-21T07:09:19;9.20;99.90
33139;DHT22;19501;50.948;5.316;2023-11-21T07:11:48;9.30;99.90
33139;DHT22;19501;50.948;5.316;2023-11-21T07:14:14;9.30;99.90
33139;DHT22;19501;50.948;5.316;2023-11-21T07:16:40;9.30;99.90
33139;DHT22;19501;50.948;5.316;2023-11-21T07:19:06;9.20;99.90
33139;DHT22;19501;50.948;5.316;2023-11-21T07:21:36;9.20;99.90
33139;DHT22;19501;50.948;5.316;2023-11-21T07:24:05;9.10;99.90
33139;DHT22;19501;50.948;5.316;2023-11-21T07:26:32;9.20;99.90
33139;DHT22;19501;50.948;5.316;2023-11-21T07:28:59;9.50;99.90
33139;DHT22;19501;50.948;5.316;2023-11-21T07:31:24;9.50;99.90
33139;DHT22;19501;50.948;5.316;2023-11-21T07:33:50;9.40;99.90
33139;DHT22;19501;50.948;5.316;2023-11-21T07:36:16;9.30;99.90
33139;DHT22;19501;50.948;5.316;2023-11-21T07:38:48;9.40;99.90
33139;DHT22;19501;50.948;5.316;2023-11-21T07:41:14;9.40;99.90
33139;DHT22;19501;50.948;5.316;2023-11-21T07:43:43;9.60;99.90
33139;DHT22;19501;50.948;5.316;2023-11-21T07:46:09;9.60;99.90
33139;DHT22;19501;50.948;5.316;2023-11-21T07:48:34;9.70;99.90
33139;DHT22;19501;50.948;5.316;2023-11-21T07:51:02;9.50;99.90
33139;DHT22;19501;50.948;5.316;2023-11-21T07:53:29;9.60;99.90
33139;DHT22;19501;50.948;5.316;2023-11-21T07:55:56;9.80;99.90
33139;DHT22;19501;50.948;5.316;2023-11-21T07:58:22;9.80;99.90
33139;DHT22;19501;50.948;5.316;2023-11-21T08:00:48;10.00;99.90
33139;DHT22;19501;50.948;5.316;2023-11-21T08:03:14;9.90;99.90
33139;DHT22;19501;50.948;5.316;2023-11-21T08:05:40;9.70;99.90
33139;DHT22;19501;50.948;5.316;2023-11-21T08:08:05;9.60;99.90
33139;DHT22;19501;50.948;5.316;2023-11-21T08:10:31;9.70;99.90
33139;DHT22;19501;50.948;5.316;2023-11-21T08:12:57;9.70;99.90
33139;DHT22;19501;50.948;5.316;2023-11-21T08:15:26;9.80;99.90
33139;DHT22;19501;50.948;5.316;2023-11-21T08:17:51;9.90;99.90
33139;DHT22;19501;50.948;5.316;2023-11-21T08:20:17;9.90;99.90
33139;DHT22;19501;50.948;5.316;2023-11-21T08:22:44;10.00;99.90
33139;DHT22;19501;50.948;5.316;2023-11-21T08:25:09;10.10;99.90
33139;DHT22;19501;50.948;5.316;2023-11-21T08:27:35;10.20;99.90
33139;DHT22;19501;50.948;5.316;2023-11-21T08:30:04;10.20;99.90
33139;DHT22;19501;50.948;5.316;2023-11-21T08:32:30;10.20;99.90
33139;DHT22;19501;50.948;5.316;2023-11-21T08:34:58;10.00;99.90
33139;DHT22;19501;50.948;5.316;2023-11-21T08:37:25;9.80;99.90
33139;DHT22;19501;50.948;5.316;2023-11-21T08:39:58;9.80;99.90
33139;DHT22;19501;50.948;5.316;2023-11-21T08:42:25;10.00;99.90
33139;DHT22;19501;50.948;5.316;2023-11-21T08:44:50;9.80;99.90
33139;DHT22;19501;50.948;5.316;2023-11-21T08:47:16;9.80;99.90
33139;DHT22;19501;50.948;5.316;2023-11-21T08:49:42;9.70;99.90
33139;DHT22;19501;50.948;5.316;2023-11-21T08:52:08;9.80;99.90
33139;DHT22;19501;50.948;5.316;2023-11-21T08:54:34;9.70;99.90
33139;DHT22;19501;50.948;5.316;2023-11-21T08:56:59;9.60;99.90
33139;DHT22;19501;50.948;5.316;2023-11-21T08:59:26;9.70;99.90
33139;DHT22;19501;50.948;5.316;2023-11-21T09:01:52;9.90;99.90
33139;DHT22;19501;50.948;5.316;2023-11-21T09:04:17;9.90;99.90
33139;DHT22;19501;50.948;5.316;2023-11-21T09:06:45;10.00;99.90
33139;DHT22;19501;50.948;5.316;2023-11-21T09:09:11;10.20;99.90
33139;DHT22;19501;50.948;5.316;2023-11-21T09:11:37;10.10;99.90
33139;DHT22;19501;50.948;5.316;2023-11-21T09:14:03;10.00;99.90
33139;DHT22;19501;50.948;5.316;2023-11-21T09:16:29;10.00;99.90
33139;DHT22;19501;50.948;5.316;2023-11-21T09:18:55;10.20;99.90
33139;DHT22;19501;50.948;5.316;2023-11-21T09:21:20;10.20;99.90
33139;DHT22;19501;50.948;5.316;2023-11-21T09:23:47;10.20;99.90
33139;DHT22;19501;50.948;5.316;2023-11-21T09:26:13;10.10;99.90
33139;DHT22;19501;50.948;5.316;2023-11-21T09:28:43;10.00;99.90
33139;DHT22;19501;50.948;5.316;2023-11-21T09:31:13;9.90;99.90
33139;DHT22;19501;50.948;5.316;2023-11-21T09:33:42;10.10;99.90
33139;DHT22;19501;50.948;5.316;2023-11-21T09:36:11;10.10;99.90
33139;DHT22;19501;50.948;5.316;2023-11-21T09:38:39;10.30;99.90
33139;DHT22;19501;50.948;5.316;2023-11-21T09:41:05;10.20;99.90
33139;DHT22;19501;50.948;5.316;2023-11-21T09:43:36;10.10;99.90
33139;DHT22;19501;50.948;5.316;2023-11-21T09:46:04;9.90;99.90
33139;DHT22;19501;50.948;5.316;2023-11-21T09:48:32;9.90;99.90
33139;DHT22;19501;50.948;5.316;2023-11-21T09:50:59;10.00;99.90
33139;DHT22;19501;50.948;5.316;2023-11-21T09:53:28;10.10;99.90
33139;DHT22;19501;50.948;5.316;2023-11-21T09:55:56;10.10;99.90
33139;DHT22;19501;50.948;5.316;2023-11-21T09:58:22;10.30;99.90
33139;DHT22;19501;50.948;5.316;2023-11-21T10:00:53;10.50;99.90
33139;DHT22;19501;50.948;5.316;2023-11-21T10:03:22;10.70;99.90
33139;DHT22;19501;50.948;5.316;2023-11-21T10:05:50;10.60;99.90
33139;DHT22;19501;50.948;5.316;2023-11-21T10:08:15;10.70;99.90
33139;DHT22;19501;50.948;5.316;2023-11-21T10:10:45;10.60;99.90
33139;DHT22;19501;50.948;5.316;2023-11-21T10:13:13;10.50;99.90
33139;DHT22;19501;50.948;5.316;2023-11-21T10:15:42;10.60;99.90
33139;DHT22;19501;50.948;5.316;2023-11-21T10:18:14;10.60;99.90
33139;DHT22;19501;50.948;5.316;2023-11-21T10:20:41;10.70;99.90
33139;DHT22;19501;50.948;5.316;2023-11-21T10:23:07;10.70;99.90
33139;DHT22;19501;50.948;5.316;2023-11-21T10:25:37;10.70;99.90
33139;DHT22;19501;50.948;5.316;2023-11-21T10:28:03;10.70;99.90
33139;DHT22;19501;50.948;5.316;2023-11-21T10:30:39;10.60;99.90
33139;DHT22;19501;50.948;5.316;2023-11-21T10:33:06;10.60;99.90
33139;DHT22;19501;50.948;5.316;2023-11-21T10:38:08;10.50;99.90
33139;DHT22;19501;50.948;5.316;2023-11-21T10:40:38;10.30;99.90
33139;DHT22;19501;50.948;5.316;2023-11-21T10:43:11;10.40;99.90
33139;DHT22;19501;50.948;5.316;2023-11-21T10:45:38;10.60;99.90
33139;DHT22;19501;50.948;5.316;2023-11-21T10:48:14;10.60;99.90
33139;DHT22;19501;50.948;5.316;2023-11-21T10:50:46;10.60;99.90
33139;DHT22;19501;50.948;5.316;2023-11-21T10:53:12;10.70;99.90
33139;DHT22;19501;50.948;5.316;2023-11-21T10:55:39;10.80;99.90
33139;DHT22;19501;50.948;5.316;2023-11-21T10:58:05;10.80;99.90
33139;DHT22;19501;50.948;5.316;2023-11-21T11:00:32;10.70;99.90
33139;DHT22;19501;50.948;5.316;2023-11-21T11:02:59;10.70;99.90
33139;DHT22;19501;50.948;5.316;2023-11-21T11:05:26;10.80;99.90
33139;DHT22;19501;50.948;5.316;2023-11-21T11:07:58;10.80;99.90
33139;DHT22;19501;50.948;5.316;2023-11-21T11:10:28;10.70;99.90
33139;DHT22;19501;50.948;5.316;2023-11-21T11:12:55;10.70;99.90
33139;DHT22;19501;50.948;5.316;2023-11-21T11:15:21;10.60;99.90
33139;DHT22;19501;50.948;5.316;2023-11-21T11:17:48;10.70;99.90
33139;DHT22;19501;50.948;5.316;2023-11-21T11:20:15;10.80;99.90
33139;DHT22;19501;50.948;5.316;2023-11-21T11:28:32;10.80;99.90
33139;DHT22;19501;50.948;5.316;2023-11-21T11:34:18;11.00;99.90
33139;DHT22;19501;50.948;5.316;2023-11-21T11:36:53;11.00;99.90
33139;DHT22;19501;50.948;5.316;2023-11-21T11:41:56;11.20;99.90
33139;DHT22;19501;50.948;5.316;2023-11-21T11:47:31;11.40;99.90
33139;DHT22;19501;50.948;5.316;2023-11-21T11:52:43;11.40;99.90
33139;DHT22;19501;50.948;5.316;2023-11-21T11:55:11;11.40;99.90
33139;DHT22;19501;50.948;5.316;2023-11-21T11:57:37;11.30;99.90
33139;DHT22;19501;50.948;5.316;2023-11-21T12:02:51;11.40;99.90
33139;DHT22;19501;50.948;5.316;2023-11-21T12:05:19;11.30;99.90
33139;DHT22;19501;50.948;5.316;2023-11-21T12:10:15;11.30;99.90
33139;DHT22;19501;50.948;5.316;2023-11-21T12:12:47;11.20;99.90
33139;DHT22;19501;50.948;5.316;2023-11-21T12:15:13;11.20;99.90
33139;DHT22;19501;50.948;5.316;2023-11-21T12:17:41;11.30;99.90
33139;DHT22;19501;50.948;5.316;2023-11-21T12:20:09;11.20;99.90
33139;DHT22;19501;50.948;5.316;2023-11-21T12:22:49;11.10;99.90
33139;DHT22;19501;50.948;5.316;2023-11-21T12:25:23;11.10;99.90
33139;DHT22;19501;50.948;5.316;2023-11-21T12:27:50;11.20;99.90
33139;DHT22;19501;50.948;5.316;2023-11-21T12:30:21;11.20;99.90
33139;DHT22;19501;50.948;5.316;2023-11-21T12:32:54;11.40;99.90
33139;DHT22;19501;50.948;5.316;2023-11-21T12:35:28;11.40;99.90
33139;DHT22;19501;50.948;5.316;2023-11-21T12:37:55;11.40;99.90
33139;DHT22;19501;50.948;5.316;2023-11-21T12:40:23;11.40;99.90
33139;DHT22;19501;50.948;5.316;2023-11-21T12:42:51;11.40;99.90
33139;DHT22;19501;50.948;5.316;2023-11-21T12:47:53;11.40;99.90
33139;DHT22;19501;50.948;5.316;2023-11-21T12:50:23;11.40;99.90
33139;DHT22;19501;50.948;5.316;2023-11-21T12:52:52;11.40;99.90
33139;DHT22;19501;50.948;5.316;2023-11-21T12:55:20;11.40;99.90
33139;DHT22;19501;50.948;5.316;2023-11-21T12:57:54;11.60;99.90
33139;DHT22;19501;50.948;5.316;2023-11-21T13:00:34;11.70;99.90
33139;DHT22;19501;50.948;5.316;2023-11-21T13:03:03;11.70;99.90
33139;DHT22;19501;50.948;5.316;2023-11-21T13:05:37;11.60;99.90
33139;DHT22;19501;50.948;5.316;2023-11-21T13:08:11;11.70;99.90
33139;DHT22;19501;50.948;5.316;2023-11-21T13:10:43;11.90;99.90
33139;DHT22;19501;50.948;5.316;2023-11-21T13:13:11;11.90;99.90
33139;DHT22;19501;50.948;5.316;2023-11-21T13:16:02;11.90;99.90
33139;DHT22;19501;50.948;5.316;2023-11-21T13:18:31;11.90;99.90
33139;DHT22;19501;50.948;5.316;2023-11-21T13:20:59;11.90;99.90
33139;DHT22;19501;50.948;5.316;2023-11-21T13:23:25;11.90;99.90
33139;DHT22;19501;50.948;5.316;2023-11-21T13:25:52;11.90;99.90
33139;DHT22;19501;50.948;5.316;2023-11-21T13:28:18;12.20;99.90
33139;DHT22;19501;50.948;5.316;2023-11-21T13:30:46;12.20;99.90
33139;DHT22;19501;50.948;5.316;2023-11-21T13:33:13;12.50;99.90
33139;DHT22;19501;50.948;5.316;2023-11-21T13:35:43;12.40;99.90
33139;DHT22;19501;50.948;5.316;2023-11-21T13:38:15;12.60;99.90
33139;DHT22;19501;50.948;5.316;2023-11-21T13:40:50;12.70;99.90
33139;DHT22;19501;50.948;5.316;2023-11-21T13:43:23;12.70;99.90
33139;DHT22;19501;50.948;5.316;2023-11-21T13:45:51;12.60;99.90
33139;DHT22;19501;50.948;5.316;2023-11-21T13:48:25;12.70;99.90
33139;DHT22;19501;50.948;5.316;2023-11-21T13:50:58;12.60;99.90
33139;DHT22;19501;50.948;5.316;2023-11-21T13:53:26;12.40;99.90
33139;DHT22;19501;50.948;5.316;2023-11-21T13:55:53;12.30;99.90
33139;DHT22;19501;50.948;5.316;2023-11-21T13:58:27;12.30;99.90
33139;DHT22;19501;50.948;5.316;2023-11-21T14:01:12;12.40;99.90
33139;DHT22;19501;50.948;5.316;2023-11-21T14:04:07;12.60;99.90
33139;DHT22;19501;50.948;5.316;2023-11-21T14:06:51;12.60;99.90
33139;DHT22;19501;50.948;5.316;2023-11-21T14:09:22;12.50;99.90
33139;DHT22;19501;50.948;5.316;2023-11-21T14:11:57;12.50;99.90
33139;DHT22;19501;50.948;5.316;2023-11-21T14:14:26;12.40;99.90
33139;DHT22;19501;50.948;5.316;2023-11-21T14:16:53;12.40;99.90
33139;DHT22;19501;50.948;5.316;2023-11-21T14:19:21;12.40;99.90
33139;DHT22;19501;50.948;5.316;2023-11-21T14:21:47;12.40;99.90
33139;DHT22;19501;50.948;5.316;2023-11-21T14:24:16;12.40;99.90
33139;DHT22;19501;50.948;5.316;2023-11-21T14:26:46;12.50;99.90
33139;DHT22;19501;50.948;5.316;2023-11-21T14:29:13;12.60;99.90
33139;DHT22;19501;50.948;5.316;2023-11-21T14:31:41;12.40;99.90
33139;DHT22;19501;50.948;5.316;2023-11-21T14:34:07;12.40;99.90
33139;DHT22;19501;50.948;5.316;2023-11-21T14:36:36;12.40;99.90
33139;DHT22;19501;50.948;5.316;2023-11-21T14:39:03;12.40;99.90
33139;DHT22;19501;50.948;5.316;2023-11-21T14:41:32;12.40;99.90
33139;DHT22;19501;50.948;5.316;2023-11-21T14:44:00;12.40;99.90
33139;DHT22;19501;50.948;5.316;2023-11-21T14:46:29;12.20;99.90
33139;DHT22;19501;50.948;5.316;2023-11-21T14:48:54;12.20;99.90
33139;DHT22;19501;50.948;5.316;2023-11-21T14:51:47;12.20;99.90
33139;DHT22;19501;50.948;5.316;2023-11-21T14:54:19;12.20;99.90
33139;DHT22;19501;50.948;5.316;2023-11-21T14:57:00;12.30;99.90
33139;DHT22;19501;50.948;5.316;2023-11-21T14:59:26;12.30;99.90
33139;DHT22;19501;50.948;5.316;2023-11-21T15:01:52;12.30;99.90
33139;DHT22;19501;50.948;5.316;2023-11-21T15:04:21;12.30;99.90
33139;DHT22;19501;50.948;5.316;2023-11-21T15:07:04;12.30;99.90
33139;DHT22;19501;50.948;5.316;2023-11-21T15:09:30;12.20;99.90
33139;DHT22;19501;50.948;5.316;2023-11-21T15:11:59;12.20;99.90
33139;DHT22;19501;50.948;5.316;2023-11-21T15:14:44;12.20;99.90
33139;DHT22;19501;50.948;5.316;2023-11-21T15:17:12;12.00;99.90
33139;DHT22;19501;50.948;5.316;2023-11-21T15:19:43;11.90;99.90
33139;DHT22;19501;50.948;5.316;2023-11-21T15:22:09;11.90;99.90
33139;DHT22;19501;50.948;5.316;2023-11-21T15:24:38;11.70;99.90
33139;DHT22;19501;50.948;5.316;2023-11-21T15:27:05;11.70;99.90
33139;DHT22;19501;50.948;5.316;2023-11-21T15:29:32;11.70;99.90
33139;DHT22;19501;50.948;5.316;2023-11-21T15:32:02;11.70;99.90
33139;DHT22;19501;50.948;5.316;2023-11-21T15:34:28;11.60;99.90
33139;DHT22;19501;50.948;5.316;2023-11-21T15:36:55;11.50;99.90
33139;DHT22;19501;50.948;5.316;2023-11-21T15:39:20;11.60;99.90
33139;DHT22;19501;50.948;5.316;2023-11-21T15:41:54;11.60;99.90
33139;DHT22;19501;50.948;5.316;2023-11-21T15:44:19;11.70;99.90
33139;DHT22;19501;50.948;5.316;2023-11-21T15:46:45;11.70;99.90
33139;DHT22;19501;50.948;5.316;2023-11-21T15:49:11;11.70;99.90
33139;DHT22;19501;50.948;5.316;2023-11-21T15:51:45;11.70;99.90
33139;DHT22;19501;50.948;5.316;2023-11-21T15:54:23;11.70;99.90
33139;DHT22;19501;50.948;5.316;2023-11-21T15:56:51;11.70;99.90
33139;DHT22;19501;50.948;5.316;2023-11-21T15:59:23;11.50;99.90
33139;DHT22;19501;50.948;5.316;2023-11-21T16:01:55;11.50;99.90
33139;DHT22;19501;50.948;5.316;2023-11-21T16:04:20;11.50;99.90
33139;DHT22;19501;50.948;5.316;2023-11-21T16:06:47;11.30;99.90
33139;DHT22;19501;50.948;5.316;2023-11-21T16:09:14;11.30;99.90
33139;DHT22;19501;50.948;5.316;2023-11-21T16:12:05;11.30;99.90